sensor_id;sensor_type;location;lat;lon;timestamp;pressure;altitude;pressure_sealevel;temperature;humidity
12775;BME280;6451;42.630;23.382;2023-07-09T00:01:51;94783.72;;;21.84;84.42
12775;BME280;6451;42.630;23.382;2023-07-09T00:04:18;94810.31;;;22.15;83.50
12775;BME280;6451;42.630;23.382;2023-07-09T00:06:46;94787.56;;;22.01;83.90
12775;BME280;6451;42.630;23.382;2023-07-09T00:09:14;94779.63;;;22.03;84.43
12775;BME280;6451;42.630;23.382;2023-07-09T00:11:41;94788.53;;;21.76;84.49
12775;BME280;6451;42.630;23.382;2023-07-09T00:14:10;94760.50;;;21.78;83.66
12775;BME280;6451;42.630;23.382;2023-07-09T00:16:38;94796.63;;;21.98;83.50
12775;BME280;6451;42.630;23.382;2023-07-09T00:19:11;94777.03;;;21.81;83.77
12775;BME280;6451;42.630;23.382;2023-07-09T00:21:41;94764.47;;;21.73;82.89
12775;BME280;6451;42.630;23.382;2023-07-09T00:24:10;94787.91;;;22.03;82.38
12775;BME280;6451;42.630;23.382;2023-07-09T00:26:38;94786.13;;;21.82;82.99
12775;BME280;6451;42.630;23.382;2023-07-09T00:29:10;94788.44;;;21.87;82.97
12775;BME280;6451;42.630;23.382;2023-07-09T00:31:38;94755.84;;;21.68;83.10
12775;BME280;6451;42.630;23.382;2023-07-09T00:34:06;94751.81;;;21.76;82.37
12775;BME280;6451;42.630;23.382;2023-07-09T00:36:33;94784.06;;;21.93;82.26
12775;BME280;6451;42.630;23.382;2023-07-09T00:39:01;94778.56;;;21.89;82.33
12775;BME280;6451;42.630;23.382;2023-07-09T00:41:32;94779.75;;;21.85;82.00
12775;BME280;6451;42.630;23.382;2023-07-09T00:44:22;94777.03;;;21.81;82.33
12775;BME280;6451;42.630;23.382;2023-07-09T00:47:15;94778.66;;;21.79;82.83
12775;BME280;6451;42.630;23.382;2023-07-09T00:49:44;94773.50;;;21.81;82.83
12775;BME280;6451;42.630;23.382;2023-07-09T00:52:22;94776.25;;;21.81;82.82
12775;BME280;6451;42.630;23.382;2023-07-09T00:54:50;94769.91;;;21.84;82.43
12775;BME280;6451;42.630;23.382;2023-07-09T00:57:22;94765.28;;;21.74;82.75
12775;BME280;6451;42.630;23.382;2023-07-09T00:59:56;94759.03;;;21.66;82.86
12775;BME280;6451;42.630;23.382;2023-07-09T01:02:26;94727.47;;;21.63;81.79
12775;BME280;6451;42.630;23.382;2023-07-09T01:04:57;94716.88;;;21.58;81.30
12775;BME280;6451;42.630;23.382;2023-07-09T01:07:26;94751.75;;;21.83;81.07
12775;BME280;6451;42.630;23.382;2023-07-09T01:09:54;94760.94;;;21.73;81.01
12775;BME280;6451;42.630;23.382;2023-07-09T01:12:22;94753.41;;;21.77;81.39
12775;BME280;6451;42.630;23.382;2023-07-09T01:14:52;94764.72;;;21.93;80.44
12775;BME280;6451;42.630;23.382;2023-07-09T01:17:21;94777.88;;;21.75;81.71
12775;BME280;6451;42.630;23.382;2023-07-09T01:19:50;94759.50;;;21.57;81.51
12775;BME280;6451;42.630;23.382;2023-07-09T01:22:20;94769.13;;;21.87;80.86
12775;BME280;6451;42.630;23.382;2023-07-09T01:24:59;94768.56;;;22.03;80.45
12775;BME280;6451;42.630;23.382;2023-07-09T01:27:30;94772.56;;;21.98;79.75
12775;BME280;6451;42.630;23.382;2023-07-09T01:29:59;94765.09;;;21.91;79.29
12775;BME280;6451;42.630;23.382;2023-07-09T01:32:27;94773.06;;;21.86;79.70
12775;BME280;6451;42.630;23.382;2023-07-09T01:34:58;94763.47;;;21.98;79.43
12775;BME280;6451;42.630;23.382;2023-07-09T01:37:27;94761.84;;;22.04;79.21
12775;BME280;6451;42.630;23.382;2023-07-09T01:39:54;94756.44;;;21.93;84.06
12775;BME280;6451;42.630;23.382;2023-07-09T01:42:23;94751.41;;;21.77;88.26
12775;BME280;6451;42.630;23.382;2023-07-09T01:44:52;94768.91;;;21.63;92.34
12775;BME280;6451;42.630;23.382;2023-07-09T01:47:20;94758.44;;;21.41;94.97
12775;BME280;6451;42.630;23.382;2023-07-09T01:49:48;94773.97;;;21.09;97.81
12775;BME280;6451;42.630;23.382;2023-07-09T01:52:16;94783.97;;;20.86;100.00
12775;BME280;6451;42.630;23.382;2023-07-09T01:54:46;94777.41;;;20.47;100.00
12775;BME280;6451;42.630;23.382;2023-07-09T01:57:18;94785.75;;;20.05;100.00
12775;BME280;6451;42.630;23.382;2023-07-09T01:59:48;94773.13;;;20.07;100.00
12775;BME280;6451;42.630;23.382;2023-07-09T02:02:15;94784.16;;;20.18;100.00
12775;BME280;6451;42.630;23.382;2023-07-09T02:04:49;94771.56;;;19.99;100.00
12775;BME280;6451;42.630;23.382;2023-07-09T02:07:16;94758.22;;;19.83;100.00
12775;BME280;6451;42.630;23.382;2023-07-09T02:09:45;94781.00;;;20.05;100.00
12775;BME280;6451;42.630;23.382;2023-07-09T02:12:13;94769.25;;;19.73;100.00
12775;BME280;6451;42.630;23.382;2023-07-09T02:14:41;94788.50;;;19.97;100.00
12775;BME280;6451;42.630;23.382;2023-07-09T02:17:11;94786.56;;;19.80;100.00
12775;BME280;6451;42.630;23.382;2023-07-09T02:19:39;94755.47;;;19.73;100.00
12775;BME280;6451;42.630;23.382;2023-07-09T02:22:13;94788.88;;;19.92;100.00
12775;BME280;6451;42.630;23.382;2023-07-09T02:24:40;94767.66;;;19.61;100.00
12775;BME280;6451;42.630;23.382;2023-07-09T02:27:09;94784.19;;;19.82;100.00
12775;BME280;6451;42.630;23.382;2023-07-09T02:29:37;94796.00;;;19.72;100.00
12775;BME280;6451;42.630;23.382;2023-07-09T02:32:05;94801.88;;;19.70;100.00
12775;BME280;6451;42.630;23.382;2023-07-09T02:34:32;94803.84;;;19.66;100.00
12775;BME280;6451;42.630;23.382;2023-07-09T02:37:01;94804.16;;;19.22;100.00
12775;BME280;6451;42.630;23.382;2023-07-09T02:39:28;94812.31;;;18.86;100.00
12775;BME280;6451;42.630;23.382;2023-07-09T02:41:55;94783.91;;;18.61;100.00
12775;BME280;6451;42.630;23.382;2023-07-09T02:44:24;94790.81;;;18.26;100.00
12775;BME280;6451;42.630;23.382;2023-07-09T02:46:51;94821.31;;;18.73;100.00
12775;BME280;6451;42.630;23.382;2023-07-09T02:49:17;94818.19;;;18.85;100.00
12775;BME280;6451;42.630;23.382;2023-07-09T02:51:45;94823.69;;;18.81;100.00
12775;BME280;6451;42.630;23.382;2023-07-09T02:54:12;94824.44;;;18.78;100.00
12775;BME280;6451;42.630;23.382;2023-07-09T02:56:39;94816.59;;;18.77;100.00
12775;BME280;6451;42.630;23.382;2023-07-09T02:59:05;94818.19;;;18.85;100.00
12775;BME280;6451;42.630;23.382;2023-07-09T03:01:34;94814.22;;;18.75;100.00
12775;BME280;6451;42.630;23.382;2023-07-09T03:04:02;94825.88;;;18.54;100.00
12775;BME280;6451;42.630;23.382;2023-07-09T03:06:30;94825.59;;;18.70;100.00
12775;BME280;6451;42.630;23.382;2023-07-09T03:08:59;94826.06;;;18.83;100.00
12775;BME280;6451;42.630;23.382;2023-07-09T03:11:28;94831.97;;;18.88;100.00
12775;BME280;6451;42.630;23.382;2023-07-09T03:13:57;94832.38;;;18.98;100.00
12775;BME280;6451;42.630;23.382;2023-07-09T03:16:26;94809.97;;;18.88;100.00
12775;BME280;6451;42.630;23.382;2023-07-09T03:18:55;94819.81;;;19.00;100.00
12775;BME280;6451;42.630;23.382;2023-07-09T03:21:22;94822.94;;;18.88;100.00
12775;BME280;6451;42.630;23.382;2023-07-09T03:23:50;94772.91;;;18.57;100.00
12775;BME280;6451;42.630;23.382;2023-07-09T03:26:17;94843.84;;;19.10;100.00
12775;BME280;6451;42.630;23.382;2023-07-09T03:28:44;94824.16;;;19.08;100.00
12775;BME280;6451;42.630;23.382;2023-07-09T03:31:12;94837.13;;;19.04;100.00
12775;BME280;6451;42.630;23.382;2023-07-09T03:33:39;94832.03;;;19.10;100.00
12775;BME280;6451;42.630;23.382;2023-07-09T03:36:07;94836.41;;;19.25;100.00
12775;BME280;6451;42.630;23.382;2023-07-09T03:38:34;94806.09;;;19.14;100.00
12775;BME280;6451;42.630;23.382;2023-07-09T03:41:01;94798.25;;;19.13;100.00
12775;BME280;6451;42.630;23.382;2023-07-09T03:43:29;94831.00;;;19.71;100.00
12775;BME280;6451;42.630;23.382;2023-07-09T03:45:55;94833.75;;;19.75;100.00
12775;BME280;6451;42.630;23.382;2023-07-09T03:48:23;94829.81;;;20.01;100.00
12775;BME280;6451;42.630;23.382;2023-07-09T03:50:50;94844.00;;;19.96;100.00
12775;BME280;6451;42.630;23.382;2023-07-09T03:53:18;94777.50;;;19.62;100.00
12775;BME280;6451;42.630;23.382;2023-07-09T03:55:46;94821.53;;;20.12;100.00
12775;BME280;6451;42.630;23.382;2023-07-09T03:58:17;94837.25;;;20.50;100.00
12775;BME280;6451;42.630;23.382;2023-07-09T04:00:44;94842.75;;;20.54;100.00
12775;BME280;6451;42.630;23.382;2023-07-09T04:03:12;94844.69;;;20.68;100.00
12775;BME280;6451;42.630;23.382;2023-07-09T04:05:39;94843.94;;;20.57;100.00
12775;BME280;6451;42.630;23.382;2023-07-09T04:08:06;94834.88;;;20.63;100.00
12775;BME280;6451;42.630;23.382;2023-07-09T04:10:34;94832.47;;;20.72;100.00
12775;BME280;6451;42.630;23.382;2023-07-09T04:13:03;94841.97;;;20.57;100.00
12775;BME280;6451;42.630;23.382;2023-07-09T04:15:30;94847.09;;;20.59;100.00
12775;BME280;6451;42.630;23.382;2023-07-09T04:17:57;94846.28;;;20.65;100.00
12775;BME280;6451;42.630;23.382;2023-07-09T04:20:25;94860.47;;;20.64;100.00
12775;BME280;6451;42.630;23.382;2023-07-09T04:22:53;94858.84;;;20.80;100.00
12775;BME280;6451;42.630;23.382;2023-07-09T04:25:20;94855.69;;;20.82;100.00
12775;BME280;6451;42.630;23.382;2023-07-09T04:27:49;94852.50;;;20.91;100.00
12775;BME280;6451;42.630;23.382;2023-07-09T04:30:17;94852.41;;;21.12;100.00
12775;BME280;6451;42.630;23.382;2023-07-09T04:32:44;94846.94;;;21.01;100.00
12775;BME280;6451;42.630;23.382;2023-07-09T04:35:14;94857.59;;;20.92;100.00
12775;BME280;6451;42.630;23.382;2023-07-09T04:37:41;94871.41;;;20.92;100.00
12775;BME280;6451;42.630;23.382;2023-07-09T04:40:12;94865.06;;;20.99;100.00
12775;BME280;6451;42.630;23.382;2023-07-09T04:42:40;94857.16;;;21.12;100.00
12775;BME280;6451;42.630;23.382;2023-07-09T04:45:11;94850.16;;;20.82;100.00
12775;BME280;6451;42.630;23.382;2023-07-09T04:47:39;94852.91;;;20.89;100.00
12775;BME280;6451;42.630;23.382;2023-07-09T04:50:07;94877.69;;;20.93;100.00
12775;BME280;6451;42.630;23.382;2023-07-09T04:52:36;94877.69;;;20.93;100.00
12775;BME280;6451;42.630;23.382;2023-07-09T04:55:03;94861.59;;;20.77;100.00
12775;BME280;6451;42.630;23.382;2023-07-09T04:57:31;94862.78;;;20.87;100.00
12775;BME280;6451;42.630;23.382;2023-07-09T04:59:58;94826.53;;;20.81;100.00
12775;BME280;6451;42.630;23.382;2023-07-09T05:02:26;94876.53;;;20.90;100.00
12775;BME280;6451;42.630;23.382;2023-07-09T05:04:53;94879.13;;;21.36;100.00
12775;BME280;6451;42.630;23.382;2023-07-09T05:07:20;94856.91;;;21.61;100.00
12775;BME280;6451;42.630;23.382;2023-07-09T05:09:50;94857.38;;;21.46;100.00
12775;BME280;6451;42.630;23.382;2023-07-09T05:12:17;94886.31;;;21.93;100.00
12775;BME280;6451;42.630;23.382;2023-07-09T05:14:46;94879.00;;;22.20;100.00
12775;BME280;6451;42.630;23.382;2023-07-09T05:17:14;94888.56;;;22.57;100.00
12775;BME280;6451;42.630;23.382;2023-07-09T05:19:44;94881.34;;;22.67;100.00
12775;BME280;6451;42.630;23.382;2023-07-09T05:22:12;94889.00;;;22.52;100.00
12775;BME280;6451;42.630;23.382;2023-07-09T05:24:40;94889.53;;;22.36;100.00
12775;BME280;6451;42.630;23.382;2023-07-09T05:27:08;94866.28;;;22.30;100.00
12775;BME280;6451;42.630;23.382;2023-07-09T05:29:36;94893.53;;;22.32;100.00
12775;BME280;6451;42.630;23.382;2023-07-09T05:32:05;94846.19;;;22.23;100.00
12775;BME280;6451;42.630;23.382;2023-07-09T05:34:33;94884.25;;;22.53;100.00
12775;BME280;6451;42.630;23.382;2023-07-09T05:37:05;94881.31;;;22.70;100.00
12775;BME280;6451;42.630;23.382;2023-07-09T05:39:39;94882.38;;;22.39;100.00
12775;BME280;6451;42.630;23.382;2023-07-09T05:42:22;94857.28;;;22.60;100.00
12775;BME280;6451;42.630;23.382;2023-07-09T05:44:51;94879.53;;;22.91;100.00
12775;BME280;6451;42.630;23.382;2023-07-09T05:47:19;94883.88;;;23.26;100.00
12775;BME280;6451;42.630;23.382;2023-07-09T05:49:46;94856.13;;;23.29;100.00
12775;BME280;6451;42.630;23.382;2023-07-09T05:52:16;94837.50;;;22.99;100.00
12775;BME280;6451;42.630;23.382;2023-07-09T05:54:44;94856.63;;;23.21;100.00
12775;BME280;6451;42.630;23.382;2023-07-09T05:57:11;94871.28;;;22.84;95.52
12775;BME280;6451;42.630;23.382;2023-07-09T05:59:38;94886.56;;;22.58;93.47
12775;BME280;6451;42.630;23.382;2023-07-09T06:02:08;94880.69;;;22.56;94.26
12775;BME280;6451;42.630;23.382;2023-07-09T06:04:36;94865.22;;;22.58;92.27
12775;BME280;6451;42.630;23.382;2023-07-09T06:07:05;94844.88;;;22.38;92.48
12775;BME280;6451;42.630;23.382;2023-07-09T06:09:33;94867.06;;;22.72;93.26
12775;BME280;6451;42.630;23.382;2023-07-09T06:12:00;94852.63;;;22.95;91.12
12775;BME280;6451;42.630;23.382;2023-07-09T06:14:27;94860.06;;;22.98;88.83
12775;BME280;6451;42.630;23.382;2023-07-09T06:16:54;94879.03;;;22.99;88.76
12775;BME280;6451;42.630;23.382;2023-07-09T06:19:21;94853.25;;;22.68;88.86
12775;BME280;6451;42.630;23.382;2023-07-09T06:21:48;94837.50;;;22.62;89.95
12775;BME280;6451;42.630;23.382;2023-07-09T06:24:15;94842.94;;;23.10;87.07
12775;BME280;6451;42.630;23.382;2023-07-09T06:26:45;94838.59;;;23.40;86.42
12775;BME280;6451;42.630;23.382;2023-07-09T06:29:11;94837.75;;;23.12;87.39
12775;BME280;6451;42.630;23.382;2023-07-09T06:31:38;94844.06;;;23.16;88.91
12775;BME280;6451;42.630;23.382;2023-07-09T06:34:08;94872.28;;;23.04;87.95
12775;BME280;6451;42.630;23.382;2023-07-09T06:36:35;94877.06;;;23.34;87.15
12775;BME280;6451;42.630;23.382;2023-07-09T06:39:02;94794.94;;;22.90;88.34
12775;BME280;6451;42.630;23.382;2023-07-09T06:41:30;94853.94;;;23.17;86.97
12775;BME280;6451;42.630;23.382;2023-07-09T06:43:59;94834.91;;;23.19;86.64
12775;BME280;6451;42.630;23.382;2023-07-09T06:46:26;94749.38;;;22.64;85.16
12775;BME280;6451;42.630;23.382;2023-07-09T06:48:53;94865.47;;;23.43;86.64
12775;BME280;6451;42.630;23.382;2023-07-09T06:51:20;94875.00;;;23.69;85.17
12775;BME280;6451;42.630;23.382;2023-07-09T06:53:46;94837.72;;;23.46;84.21
12775;BME280;6451;42.630;23.382;2023-07-09T06:56:15;94868.69;;;23.68;84.72
12775;BME280;6451;42.630;23.382;2023-07-09T06:58:48;94866.91;;;23.81;84.66
12775;BME280;6451;42.630;23.382;2023-07-09T07:01:16;94867.28;;;23.83;84.61
12775;BME280;6451;42.630;23.382;2023-07-09T07:03:43;94866.91;;;23.81;83.56
12775;BME280;6451;42.630;23.382;2023-07-09T07:06:11;94867.66;;;23.85;85.30
12775;BME280;6451;42.630;23.382;2023-07-09T07:08:38;94870.09;;;24.34;84.98
12775;BME280;6451;42.630;23.382;2023-07-09T07:11:05;94873.66;;;24.07;79.57
12775;BME280;6451;42.630;23.382;2023-07-09T07:13:34;94854.53;;;24.13;79.25
12775;BME280;6451;42.630;23.382;2023-07-09T07:16:02;94827.34;;;24.04;82.29
12775;BME280;6451;42.630;23.382;2023-07-09T07:18:30;94871.38;;;24.26;80.70
12775;BME280;6451;42.630;23.382;2023-07-09T07:20:57;94856.97;;;24.11;81.72
12775;BME280;6451;42.630;23.382;2023-07-09T07:23:24;94853.88;;;24.29;80.14
12775;BME280;6451;42.630;23.382;2023-07-09T07:25:58;94861.97;;;24.47;80.63
12775;BME280;6451;42.630;23.382;2023-07-09T07:28:25;94857.13;;;24.51;80.93
12775;BME280;6451;42.630;23.382;2023-07-09T07:30:59;94841.00;;;24.19;81.38
12775;BME280;6451;42.630;23.382;2023-07-09T07:33:26;94855.44;;;24.06;82.65
12775;BME280;6451;42.630;23.382;2023-07-09T07:35:54;94836.41;;;24.32;81.30
12775;BME280;6451;42.630;23.382;2023-07-09T07:38:21;94852.56;;;24.60;81.24
12775;BME280;6451;42.630;23.382;2023-07-09T07:40:49;94817.00;;;24.08;80.08
12775;BME280;6451;42.630;23.382;2023-07-09T07:43:16;94744.50;;;23.87;80.16
12775;BME280;6451;42.630;23.382;2023-07-09T07:45:43;94845.28;;;24.70;79.52
12775;BME280;6451;42.630;23.382;2023-07-09T07:50:46;94849.06;;;24.80;76.64
12775;BME280;6451;42.630;23.382;2023-07-09T07:53:15;94857.13;;;24.51;77.25
12775;BME280;6451;42.630;23.382;2023-07-09T07:55:42;94852.41;;;24.91;75.86
12775;BME280;6451;42.630;23.382;2023-07-09T07:58:13;94852.38;;;24.71;77.09
12775;BME280;6451;42.630;23.382;2023-07-09T08:00:40;94858.50;;;24.82;74.33
12775;BME280;6451;42.630;23.382;2023-07-09T08:03:07;94783.63;;;24.16;74.50
12775;BME280;6451;42.630;23.382;2023-07-09T08:05:34;94836.94;;;24.70;75.50
12775;BME280;6451;42.630;23.382;2023-07-09T08:08:01;94851.38;;;25.05;76.70
12775;BME280;6451;42.630;23.382;2023-07-09T08:10:30;94835.53;;;25.02;74.49
12775;BME280;6451;42.630;23.382;2023-07-09T08:12:57;94839.72;;;24.90;75.00
12775;BME280;6451;42.630;23.382;2023-07-09T08:15:24;94822.66;;;24.72;76.18
12775;BME280;6451;42.630;23.382;2023-07-09T08:17:51;94822.84;;;24.81;75.98
12775;BME280;6451;42.630;23.382;2023-07-09T08:20:18;94847.38;;;25.26;73.77
12775;BME280;6451;42.630;23.382;2023-07-09T08:22:45;94823.78;;;25.34;70.01
12775;BME280;6451;42.630;23.382;2023-07-09T08:25:12;94778.75;;;25.42;69.15
12775;BME280;6451;42.630;23.382;2023-07-09T08:27:41;94829.34;;;25.34;70.56
12775;BME280;6451;42.630;23.382;2023-07-09T08:30:09;94842.91;;;25.12;71.87
12775;BME280;6451;42.630;23.382;2023-07-09T08:32:36;94836.06;;;25.52;71.37
12775;BME280;6451;42.630;23.382;2023-07-09T08:35:03;94829.53;;;25.43;69.01
12775;BME280;6451;42.630;23.382;2023-07-09T08:37:30;94819.06;;;25.50;69.37
12775;BME280;6451;42.630;23.382;2023-07-09T08:39:57;94809.31;;;25.42;70.51
12775;BME280;6451;42.630;23.382;2023-07-09T08:42:29;94812.00;;;25.82;69.27
12775;BME280;6451;42.630;23.382;2023-07-09T08:45:12;94829.75;;;25.68;68.32
12775;BME280;6451;42.630;23.382;2023-07-09T08:47:47;94811.53;;;25.67;67.69
12775;BME280;6451;42.630;23.382;2023-07-09T08:50:21;94839.97;;;25.39;69.06
12775;BME280;6451;42.630;23.382;2023-07-09T08:52:50;94840.94;;;25.48;68.66
12775;BME280;6451;42.630;23.382;2023-07-09T08:55:20;94828.38;;;25.24;71.52
12775;BME280;6451;42.630;23.382;2023-07-09T08:57:49;94773.66;;;25.01;72.20
12775;BME280;6451;42.630;23.382;2023-07-09T09:00:23;94804.97;;;25.41;72.38
12775;BME280;6451;42.630;23.382;2023-07-09T09:02:56;94779.31;;;25.54;72.25
12775;BME280;6451;42.630;23.382;2023-07-09T09:05:24;94772.63;;;25.84;70.91
12775;BME280;6451;42.630;23.382;2023-07-09T09:07:56;94833.41;;;25.85;71.73
12775;BME280;6451;42.630;23.382;2023-07-09T09:10:32;94708.75;;;25.31;72.02
12775;BME280;6451;42.630;23.382;2023-07-09T09:13:05;94833.13;;;26.12;71.62
12775;BME280;6451;42.630;23.382;2023-07-09T09:15:39;94814.09;;;25.78;72.20
12775;BME280;6451;42.630;23.382;2023-07-09T09:18:20;94828.19;;;26.20;71.49
12775;BME280;6451;42.630;23.382;2023-07-09T09:20:53;94811.31;;;26.27;69.98
12775;BME280;6451;42.630;23.382;2023-07-09T09:23:25;94784.66;;;25.61;72.18
12775;BME280;6451;42.630;23.382;2023-07-09T09:25:59;94831.13;;;25.60;72.68
12775;BME280;6451;42.630;23.382;2023-07-09T09:28:28;94824.78;;;25.80;72.63
12775;BME280;6451;42.630;23.382;2023-07-09T09:30:57;94821.66;;;25.94;73.35
12775;BME280;6451;42.630;23.382;2023-07-09T09:33:24;94828.63;;;26.18;73.71
12775;BME280;6451;42.630;23.382;2023-07-09T09:36:01;94821.66;;;26.26;71.43
12775;BME280;6451;42.630;23.382;2023-07-09T09:38:28;94812.53;;;25.93;71.67
12775;BME280;6451;42.630;23.382;2023-07-09T09:40:59;94812.34;;;26.49;71.10
12775;BME280;6451;42.630;23.382;2023-07-09T09:43:32;94813.66;;;26.28;70.45
12775;BME280;6451;42.630;23.382;2023-07-09T09:46:06;94816.22;;;26.39;71.04
12775;BME280;6451;42.630;23.382;2023-07-09T09:48:33;94810.00;;;26.48;68.91
12775;BME280;6451;42.630;23.382;2023-07-09T09:51:04;94803.38;;;26.87;67.81
12775;BME280;6451;42.630;23.382;2023-07-09T09:53:38;94800.84;;;26.93;66.73
12775;BME280;6451;42.630;23.382;2023-07-09T09:56:18;94802.44;;;26.32;67.73
12775;BME280;6451;42.630;23.382;2023-07-09T09:58:46;94762.25;;;26.49;66.27
12775;BME280;6451;42.630;23.382;2023-07-09T10:01:27;94803.63;;;26.93;66.51
12775;BME280;6451;42.630;23.382;2023-07-09T10:03:57;94803.19;;;27.23;64.75
12775;BME280;6451;42.630;23.382;2023-07-09T10:06:34;94821.88;;;27.10;63.62
12775;BME280;6451;42.630;23.382;2023-07-09T10:09:08;94809.91;;;26.51;65.42
12775;BME280;6451;42.630;23.382;2023-07-09T10:11:45;94728.16;;;25.84;66.15
12775;BME280;6451;42.630;23.382;2023-07-09T10:14:25;94810.09;;;26.28;65.83
12775;BME280;6451;42.630;23.382;2023-07-09T10:16:59;94800.34;;;26.52;66.21
12775;BME280;6451;42.630;23.382;2023-07-09T10:19:35;94808.00;;;26.48;66.21
12775;BME280;6451;42.630;23.382;2023-07-09T10:22:07;94794.69;;;26.56;66.39
12775;BME280;6451;42.630;23.382;2023-07-09T10:24:47;94792.31;;;26.71;65.34
12775;BME280;6451;42.630;23.382;2023-07-09T10:27:23;94791.66;;;26.50;62.17
12775;BME280;6451;42.630;23.382;2023-07-09T10:30:13;94743.84;;;26.06;62.97
12775;BME280;6451;42.630;23.382;2023-07-09T10:32:53;94767.13;;;26.45;63.17
12775;BME280;6451;42.630;23.382;2023-07-09T10:35:37;94791.72;;;26.63;62.78
12775;BME280;6451;42.630;23.382;2023-07-09T10:38:18;94765.56;;;26.73;63.26
12775;BME280;6451;42.630;23.382;2023-07-09T10:40:49;94766.81;;;27.14;60.69
12775;BME280;6451;42.630;23.382;2023-07-09T10:43:22;94776.56;;;27.22;59.34
12775;BME280;6451;42.630;23.382;2023-07-09T10:45:54;94771.41;;;27.21;59.44
12775;BME280;6451;42.630;23.382;2023-07-09T10:48:33;94781.03;;;27.58;59.78
12775;BME280;6451;42.630;23.382;2023-07-09T10:51:00;94762.88;;;27.91;57.66
12775;BME280;6451;42.630;23.382;2023-07-09T10:53:33;94673.09;;;26.37;58.08
12775;BME280;6451;42.630;23.382;2023-07-09T10:56:07;94764.53;;;26.67;57.72
12775;BME280;6451;42.630;23.382;2023-07-09T10:58:41;94775.53;;;27.29;55.99
12775;BME280;6451;42.630;23.382;2023-07-09T11:01:12;94777.75;;;27.08;54.91
12775;BME280;6451;42.630;23.382;2023-07-09T11:03:44;94778.91;;;26.95;53.20
12775;BME280;6451;42.630;23.382;2023-07-09T11:06:18;94742.19;;;26.71;55.88
12775;BME280;6451;42.630;23.382;2023-07-09T11:08:49;94768.06;;;27.26;55.92
12775;BME280;6451;42.630;23.382;2023-07-09T11:11:24;94765.53;;;27.31;55.47
12775;BME280;6451;42.630;23.382;2023-07-09T11:13:55;94614.47;;;26.31;54.94
12775;BME280;6451;42.630;23.382;2023-07-09T11:16:28;94748.00;;;26.76;52.79
12775;BME280;6451;42.630;23.382;2023-07-09T11:19:02;94780.53;;;27.21;51.27
12775;BME280;6451;42.630;23.382;2023-07-09T11:21:30;94778.47;;;27.51;51.06
12775;BME280;6451;42.630;23.382;2023-07-09T11:23:59;94767.38;;;27.22;52.95
12775;BME280;6451;42.630;23.382;2023-07-09T11:26:27;94758.38;;;27.18;51.93
12775;BME280;6451;42.630;23.382;2023-07-09T11:29:06;94766.53;;;27.63;51.20
12775;BME280;6451;42.630;23.382;2023-07-09T11:31:38;94759.81;;;27.60;49.83
12775;BME280;6451;42.630;23.382;2023-07-09T11:34:14;94750.25;;;27.87;48.59
12775;BME280;6451;42.630;23.382;2023-07-09T11:36:47;94779.44;;;28.20;48.94
12775;BME280;6451;42.630;23.382;2023-07-09T11:39:20;94751.34;;;27.51;48.43
12775;BME280;6451;42.630;23.382;2023-07-09T11:41:47;94768.09;;;27.64;47.05
12775;BME280;6451;42.630;23.382;2023-07-09T11:44:17;94731.16;;;27.60;46.61
12775;BME280;6451;42.630;23.382;2023-07-09T11:47:12;94765.28;;;28.15;46.78
12775;BME280;6451;42.630;23.382;2023-07-09T11:49:49;94746.56;;;28.03;47.89
12775;BME280;6451;42.630;23.382;2023-07-09T11:52:22;94751.13;;;27.96;48.69
12775;BME280;6451;42.630;23.382;2023-07-09T11:54:51;94752.53;;;28.14;46.46
12775;BME280;6451;42.630;23.382;2023-07-09T11:57:18;94741.66;;;27.94;47.27
12775;BME280;6451;42.630;23.382;2023-07-09T11:59:45;94756.78;;;28.06;47.80
12775;BME280;6451;42.630;23.382;2023-07-09T12:02:19;94753.44;;;28.23;46.05
12775;BME280;6451;42.630;23.382;2023-07-09T12:04:50;94751.75;;;28.39;45.72
12775;BME280;6451;42.630;23.382;2023-07-09T12:07:20;94752.19;;;28.59;46.27
12775;BME280;6451;42.630;23.382;2023-07-09T12:09:50;94751.41;;;28.59;48.58
12775;BME280;6451;42.630;23.382;2023-07-09T12:12:19;94746.19;;;28.61;46.97
12775;BME280;6451;42.630;23.382;2023-07-09T12:14:46;94737.66;;;28.64;47.47
12775;BME280;6451;42.630;23.382;2023-07-09T12:17:13;94755.78;;;28.81;47.73
12775;BME280;6451;42.630;23.382;2023-07-09T12:19:41;94705.72;;;27.96;50.60
12775;BME280;6451;42.630;23.382;2023-07-09T12:22:17;94747.31;;;28.16;50.20
12775;BME280;6451;42.630;23.382;2023-07-09T12:24:44;94744.34;;;28.45;50.32
12775;BME280;6451;42.630;23.382;2023-07-09T12:27:20;94746.09;;;28.51;50.80
12775;BME280;6451;42.630;23.382;2023-07-09T12:29:47;94741.72;;;28.85;50.36
12775;BME280;6451;42.630;23.382;2023-07-09T12:32:17;94715.78;;;28.63;49.89
12775;BME280;6451;42.630;23.382;2023-07-09T12:34:47;94735.84;;;28.70;50.61
12775;BME280;6451;42.630;23.382;2023-07-09T12:37:16;94744.53;;;29.07;48.31
12775;BME280;6451;42.630;23.382;2023-07-09T12:39:43;94744.56;;;28.72;48.91
12775;BME280;6451;42.630;23.382;2023-07-09T12:42:15;94730.63;;;28.94;48.32
12775;BME280;6451;42.630;23.382;2023-07-09T12:44:43;94721.13;;;28.92;48.77
12775;BME280;6451;42.630;23.382;2023-07-09T12:47:13;94735.28;;;28.97;49.33
12775;BME280;6451;42.630;23.382;2023-07-09T12:49:44;94570.97;;;28.08;49.47
12775;BME280;6451;42.630;23.382;2023-07-09T12:52:16;94703.75;;;28.97;49.82
12775;BME280;6451;42.630;23.382;2023-07-09T12:54:52;94706.66;;;29.46;48.92
12775;BME280;6451;42.630;23.382;2023-07-09T12:57:21;94653.56;;;29.15;48.34
12775;BME280;6451;42.630;23.382;2023-07-09T12:59:50;94670.97;;;29.59;47.88
12775;BME280;6451;42.630;23.382;2023-07-09T13:02:19;94710.25;;;29.47;47.29
12775;BME280;6451;42.630;23.382;2023-07-09T13:04:48;94719.41;;;29.47;47.80
12775;BME280;6451;42.630;23.382;2023-07-09T13:07:36;94708.78;;;29.73;47.62
12775;BME280;6451;42.630;23.382;2023-07-09T13:10:06;94730.38;;;30.13;47.44
12775;BME280;6451;42.630;23.382;2023-07-09T13:12:34;94706.56;;;29.59;47.41
12775;BME280;6451;42.630;23.382;2023-07-09T13:15:06;94696.84;;;29.42;47.18